createdAt,value
2023-04-04T00:00:40.285Z,8.30
2023-04-04T00:03:07.408Z,8.28
2023-04-04T00:05:35.760Z,8.27
2023-04-04T00:08:03.070Z,8.30
2023-04-04T00:10:29.669Z,8.33
2023-04-04T00:12:56.554Z,8.26
2023-04-04T00:15:23.153Z,8.23
2023-04-04T00:17:49.796Z,8.19
2023-04-04T00:20:16.393Z,8.18
2023-04-04T00:22:43.438Z,8.17
2023-04-04T00:25:10.915Z,8.10
2023-04-04T00:27:37.423Z,8.06
2023-04-04T00:30:04.190Z,8.04
2023-04-04T00:32:30.838Z,8.07
2023-04-04T00:34:58.073Z,8.10
2023-04-04T00:37:24.675Z,8.03
2023-04-04T00:39:51.241Z,7.96
2023-04-04T00:42:17.963Z,7.95
2023-04-04T00:44:44.657Z,7.93
2023-04-04T00:47:11.412Z,7.95
2023-04-04T00:49:38.018Z,7.92
2023-04-04T00:52:07.397Z,7.87
2023-04-04T00:54:34.487Z,7.88
2023-04-04T00:57:01.761Z,7.83
2023-04-04T00:59:29.211Z,7.84
2023-04-04T01:01:56.002Z,7.86
2023-04-04T01:04:22.760Z,7.84
2023-04-04T01:06:50.964Z,7.84
2023-04-04T01:09:17.714Z,7.81
2023-04-04T01:11:44.506Z,7.81
2023-04-04T01:14:11.101Z,7.80
2023-04-04T01:16:37.960Z,7.81
2023-04-04T01:19:06.693Z,7.83
2023-04-04T01:21:34.088Z,7.83
2023-04-04T01:24:01.519Z,7.76
2023-04-04T01:26:28.388Z,7.73
2023-04-04T01:28:55.463Z,7.70
2023-04-04T01:31:31.064Z,7.70
2023-04-04T01:34:12.171Z,7.70
2023-04-04T01:36:54.150Z,7.66
2023-04-04T01:39:23.528Z,7.64
2023-04-04T01:41:50.657Z,7.61
2023-04-04T01:44:17.776Z,7.56
2023-04-04T01:46:44.463Z,7.52
2023-04-04T01:49:11.412Z,7.59
2023-04-04T01:51:38.988Z,7.50
2023-04-04T01:54:05.580Z,7.40
2023-04-04T01:56:32.940Z,7.36
2023-04-04T01:58:59.536Z,7.36
2023-04-04T02:01:26.100Z,7.36
2023-04-04T02:03:52.885Z,7.35
2023-04-04T02:06:19.547Z,7.37
2023-04-04T02:08:46.570Z,7.34
2023-04-04T02:11:13.083Z,7.32
2023-04-04T02:13:44.298Z,7.27
2023-04-04T02:16:11.009Z,7.28
2023-04-04T02:18:37.674Z,7.28
2023-04-04T02:21:04.339Z,7.22
2023-04-04T02:23:31.170Z,7.21
2023-04-04T02:25:57.728Z,7.22
2023-04-04T02:28:24.356Z,7.20
2023-04-04T02:30:50.900Z,7.17
2023-04-04T02:33:17.452Z,7.16
2023-04-04T02:35:44.107Z,7.19
2023-04-04T02:38:10.772Z,7.16
2023-04-04T02:40:39.807Z,7.10
2023-04-04T02:43:06.727Z,7.10
2023-04-04T02:45:33.249Z,7.05
2023-04-04T02:47:59.856Z,7.06
2023-04-04T02:50:26.516Z,7.03
2023-04-04T02:52:54.946Z,7.06
2023-04-04T02:55:21.489Z,7.04
2023-04-04T02:57:51.678Z,7.01
2023-04-04T03:00:18.396Z,7.02
2023-04-04T03:02:45.121Z,7.03
2023-04-04T03:05:11.859Z,7.06
2023-04-04T03:07:38.371Z,7.10
2023-04-04T03:10:05.132Z,7.11
2023-04-04T03:12:31.758Z,7.14
2023-04-04T03:14:58.383Z,7.14
2023-04-04T03:17:25.707Z,7.16
2023-04-04T03:19:52.534Z,7.19
2023-04-04T03:22:19.179Z,7.22
2023-04-04T03:24:45.748Z,7.25
2023-04-04T03:27:12.499Z,7.29
2023-04-04T03:29:39.128Z,7.26
2023-04-04T03:32:06.219Z,7.26
2023-04-04T03:34:33.029Z,7.26
2023-04-04T03:37:02.811Z,7.30
2023-04-04T03:39:32.286Z,7.31
2023-04-04T03:41:58.888Z,7.31
2023-04-04T03:44:25.482Z,7.33
2023-04-04T03:46:52.097Z,7.36
2023-04-04T03:49:18.706Z,7.34
2023-04-04T03:51:45.232Z,7.36
2023-04-04T03:54:11.989Z,7.33
2023-04-04T03:56:38.601Z,7.32
2023-04-04T03:59:05.216Z,7.32
2023-04-04T04:01:31.753Z,7.30
2023-04-04T04:03:58.400Z,7.32
2023-04-04T04:06:24.987Z,7.35
2023-04-04T04:08:51.550Z,7.39
2023-04-04T04:11:18.366Z,7.37
2023-04-04T04:13:44.943Z,7.38
2023-04-04T04:16:11.478Z,7.37
2023-04-04T04:18:38.180Z,7.37
2023-04-04T04:21:05.174Z,7.43
2023-04-04T04:23:31.788Z,7.41
2023-04-04T04:25:58.391Z,7.46
2023-04-04T04:28:33.181Z,7.41
2023-04-04T04:31:07.971Z,7.43
2023-04-04T04:33:35.017Z,7.45
2023-04-04T04:36:05.742Z,7.51
2023-04-04T04:38:32.681Z,7.48
2023-04-04T04:40:59.297Z,7.49
2023-04-04T04:43:26.295Z,7.45
2023-04-04T04:45:52.826Z,7.44
2023-04-04T04:48:19.400Z,7.45
2023-04-04T04:50:47.074Z,7.49
2023-04-04T04:53:16.783Z,7.54
2023-04-04T04:55:43.808Z,7.58
2023-04-04T04:58:11.205Z,7.60
2023-04-04T05:00:38.393Z,7.64
2023-04-04T05:03:08.733Z,7.72
2023-04-04T05:05:35.453Z,7.78
2023-04-04T05:08:02.762Z,7.84
2023-04-04T05:10:29.981Z,7.96
2023-04-04T05:12:56.598Z,8.07
2023-04-04T05:15:23.517Z,8.14
2023-04-04T05:17:50.268Z,8.22
2023-04-04T05:20:17.069Z,8.29
2023-04-04T05:22:44.403Z,8.30
2023-04-04T05:25:11.377Z,8.33
2023-04-04T05:27:39.034Z,8.37
2023-04-04T05:30:06.186Z,8.45
2023-04-04T05:32:32.810Z,8.50
2023-04-04T05:34:59.610Z,8.52
2023-04-04T05:37:26.358Z,8.47
2023-04-04T05:39:52.972Z,8.47
2023-04-04T05:42:19.530Z,8.38
2023-04-04T05:44:46.398Z,8.33
2023-04-04T05:47:12.936Z,8.25
2023-04-04T05:49:39.549Z,8.28
2023-04-04T05:52:06.189Z,8.29
2023-04-04T05:54:32.752Z,8.35
2023-04-04T05:56:59.304Z,8.33
2023-04-04T05:59:26.018Z,8.29
2023-04-04T06:01:52.678Z,8.32
2023-04-04T06:04:19.239Z,8.35
2023-04-04T06:06:46.301Z,8.39
2023-04-04T06:09:12.856Z,8.39
2023-04-04T06:11:39.451Z,8.39
2023-04-04T06:14:06.024Z,8.44
2023-04-04T06:16:33.090Z,8.50
2023-04-04T06:18:59.684Z,8.56
2023-04-04T06:21:26.636Z,8.62
2023-04-04T06:23:53.187Z,8.66
2023-04-04T06:26:20.558Z,8.71
2023-04-04T06:28:50.349Z,8.79
2023-04-04T06:31:17.277Z,8.86
2023-04-04T06:33:43.943Z,8.98
2023-04-04T06:36:10.732Z,9.14
2023-04-04T06:38:37.392Z,9.30
2023-04-04T06:41:03.928Z,9.51
2023-04-04T06:43:31.080Z,9.68
2023-04-04T06:45:58.040Z,9.85
2023-04-04T06:48:24.595Z,9.98
2023-04-04T06:50:51.331Z,10.11
2023-04-04T06:53:17.918Z,10.25
2023-04-04T06:55:44.565Z,10.31
2023-04-04T06:58:11.286Z,10.39
2023-04-04T07:00:38.160Z,10.50
2023-04-04T07:03:04.965Z,10.56
2023-04-04T07:05:32.368Z,10.64
2023-04-04T07:07:59.064Z,10.73
2023-04-04T07:10:26.181Z,10.81
2023-04-04T07:12:53.017Z,10.86
2023-04-04T07:15:19.740Z,10.92
2023-04-04T07:17:46.537Z,11.01
2023-04-04T07:20:13.555Z,11.18
2023-04-04T07:22:41.042Z,11.31
2023-04-04T07:25:08.253Z,11.43
2023-04-04T07:27:34.935Z,11.54
2023-04-04T07:30:01.462Z,11.69
2023-04-04T07:32:29.464Z,11.83
2023-04-04T07:34:56.153Z,11.97
2023-04-04T07:37:22.781Z,12.10
2023-04-04T07:39:50.103Z,12.10
2023-04-04T07:42:22.991Z,12.09
2023-04-04T07:44:50.532Z,12.13
2023-04-04T07:47:17.730Z,12.05
2023-04-04T07:49:44.436Z,11.97
2023-04-04T07:52:11.027Z,12.00
2023-04-04T07:54:40.315Z,12.02
2023-04-04T07:57:09.808Z,12.07
2023-04-04T07:59:36.887Z,12.17
2023-04-04T08:02:03.506Z,12.23
2023-04-04T08:04:30.234Z,12.29
2023-04-04T08:06:56.865Z,12.32
2023-04-04T08:09:23.430Z,12.29
2023-04-04T08:11:50.135Z,12.31
2023-04-04T08:14:17.275Z,12.26
2023-04-04T08:16:43.820Z,12.20
2023-04-04T08:19:10.379Z,12.24
2023-04-04T08:21:37.305Z,12.34
2023-04-04T08:24:03.916Z,12.46
2023-04-04T08:26:30.731Z,12.52
2023-04-04T08:28:57.267Z,12.60
2023-04-04T08:31:24.153Z,12.78
2023-04-04T08:33:50.847Z,12.97
2023-04-04T08:36:17.884Z,13.16
2023-04-04T08:38:44.762Z,13.30
2023-04-04T08:41:12.137Z,13.41
2023-04-04T08:43:41.224Z,13.51
2023-04-04T08:46:10.064Z,13.66
2023-04-04T08:48:39.285Z,13.83
2023-04-04T08:51:08.938Z,13.99
2023-04-04T08:53:37.188Z,14.07
2023-04-04T08:56:04.561Z,14.18
2023-04-04T08:58:31.204Z,14.32
2023-04-04T09:00:57.996Z,14.44
2023-04-04T09:03:31.044Z,14.60
2023-04-04T09:05:57.933Z,14.63
2023-04-04T09:08:24.956Z,14.66
2023-04-04T09:10:52.410Z,14.66
2023-04-04T09:13:19.320Z,14.63
2023-04-04T09:15:50.189Z,14.59
2023-04-04T09:18:16.981Z,14.54
2023-04-04T09:20:44.523Z,14.54
2023-04-04T09:23:13.159Z,14.57
2023-04-04T09:26:02.383Z,14.62
2023-04-04T09:28:30.380Z,14.73
2023-04-04T09:30:57.054Z,14.72
2023-04-04T09:33:26.812Z,14.66
2023-04-04T09:36:03.568Z,14.60
2023-04-04T09:38:31.433Z,14.58
2023-04-04T09:40:58.298Z,14.62
2023-04-04T09:43:25.274Z,14.64
2023-04-04T09:45:52.330Z,14.72
2023-04-04T09:48:28.923Z,14.78
2023-04-04T09:50:58.243Z,14.73
2023-04-04T09:53:25.040Z,14.67
2023-04-04T09:55:52.320Z,14.63
2023-04-04T09:58:23.755Z,14.49
2023-04-04T10:00:52.565Z,14.29
2023-04-04T10:03:21.910Z,14.13
2023-04-04T10:05:50.127Z,14.14
2023-04-04T10:08:22.207Z,14.22
2023-04-04T10:11:02.616Z,14.40
2023-04-04T10:13:37.165Z,14.67
2023-04-04T10:16:04.461Z,14.97
2023-04-04T10:18:32.451Z,15.24
2023-04-04T10:21:08.164Z,15.27
2023-04-04T10:23:42.361Z,15.16
2023-04-04T10:26:08.961Z,15.06
2023-04-04T10:28:35.749Z,14.96
2023-04-04T10:31:20.448Z,14.88
2023-04-04T10:34:04.732Z,14.78
2023-04-04T10:36:38.690Z,14.60
2023-04-04T10:39:12.851Z,14.58
2023-04-04T10:41:40.259Z,14.66
2023-04-04T10:44:30.469Z,14.73
2023-04-04T10:46:59.017Z,14.86
2023-04-04T10:49:25.919Z,14.99
2023-04-04T10:51:56.767Z,15.07
2023-04-04T10:54:24.147Z,15.01
2023-04-04T10:56:51.131Z,14.99
2023-04-04T10:59:18.268Z,14.96
2023-04-04T11:01:55.205Z,14.92
2023-04-04T11:04:28.682Z,14.96
2023-04-04T11:07:07.964Z,14.99
2023-04-04T11:09:50.685Z,14.98
2023-04-04T11:12:22.088Z,14.88
2023-04-04T11:15:01.060Z,14.73
2023-04-04T11:17:43.482Z,14.54
2023-04-04T11:20:10.812Z,14.46
2023-04-04T11:22:37.941Z,14.49
2023-04-04T11:25:23.418Z,14.58
2023-04-04T11:27:51.650Z,14.68
2023-04-04T11:30:18.327Z,14.59
2023-04-04T11:32:59.762Z,14.39
2023-04-04T11:35:33.111Z,14.19
2023-04-04T11:38:01.088Z,14.14
2023-04-04T11:40:37.593Z,14.06
2023-04-04T11:43:07.567Z,14.00
2023-04-04T11:45:35.040Z,14.00
2023-04-04T11:48:03.369Z,13.88
2023-04-04T11:50:34.828Z,13.81
2023-04-04T11:53:05.147Z,13.84
2023-04-04T11:55:32.186Z,13.92
2023-04-04T11:58:05.699Z,13.98
2023-04-04T12:00:35.051Z,14.00
2023-04-04T12:03:01.935Z,13.99
2023-04-04T12:05:30.822Z,13.99
2023-04-04T12:07:57.921Z,14.01
2023-04-04T12:10:24.709Z,14.10
2023-04-04T12:12:54.729Z,14.20
2023-04-04T12:15:22.075Z,14.29
2023-04-04T12:17:49.193Z,14.33
2023-04-04T12:20:16.049Z,14.32
2023-04-04T12:22:45.677Z,14.36
2023-04-04T12:25:12.364Z,14.47
2023-04-04T12:27:40.647Z,14.60
2023-04-04T12:30:15.270Z,14.75
2023-04-04T12:32:45.539Z,14.91
2023-04-04T12:35:13.430Z,15.02
2023-04-04T12:37:42.939Z,15.17
2023-04-04T12:40:10.739Z,15.20
2023-04-04T12:42:37.316Z,15.21
2023-04-04T12:45:05.393Z,15.14
2023-04-04T12:47:32.394Z,15.03
2023-04-04T12:49:59.045Z,14.94
2023-04-04T12:52:32.146Z,14.87
2023-04-04T12:55:08.235Z,14.83
2023-04-04T12:57:35.974Z,14.79
2023-04-04T13:00:04.610Z,14.89
2023-04-04T13:02:31.254Z,14.98
2023-04-04T13:04:58.574Z,15.01
2023-04-04T13:07:27.546Z,15.10
2023-04-04T13:09:55.437Z,15.20
2023-04-04T13:12:22.016Z,15.27
2023-04-04T13:15:01.535Z,15.38
2023-04-04T13:17:48.449Z,15.44
2023-04-04T13:20:16.895Z,15.44
2023-04-04T13:22:43.800Z,15.38
2023-04-04T13:25:11.235Z,15.35
2023-04-04T13:27:38.419Z,15.30
2023-04-04T13:30:06.563Z,15.26
2023-04-04T13:32:33.826Z,15.22
2023-04-04T13:35:00.420Z,15.16
2023-04-04T13:37:28.072Z,15.09
2023-04-04T13:39:54.648Z,14.92
2023-04-04T13:42:23.303Z,14.92
2023-04-04T13:44:49.833Z,14.90
2023-04-04T13:47:16.533Z,14.88
2023-04-04T13:49:43.077Z,14.78
2023-04-04T13:52:09.627Z,14.65
2023-04-04T13:54:36.319Z,14.51
2023-04-04T13:57:02.931Z,14.45
2023-04-04T13:59:29.651Z,14.43
2023-04-04T14:01:56.476Z,14.41
2023-04-04T14:04:24.315Z,14.36
2023-04-04T14:06:51.254Z,14.30
2023-04-04T14:09:17.795Z,14.26
2023-04-04T14:11:46.451Z,14.25
2023-04-04T14:14:13.147Z,14.27
2023-04-04T14:16:39.716Z,14.32
2023-04-04T14:19:07.036Z,14.37
2023-04-04T14:21:33.623Z,14.37
2023-04-04T14:24:00.298Z,14.36
2023-04-04T14:26:26.859Z,14.33
2023-04-04T14:28:53.467Z,14.33
2023-04-04T14:31:20.082Z,14.33
2023-04-04T14:33:46.699Z,14.33
2023-04-04T14:36:13.275Z,14.29
2023-04-04T14:38:39.824Z,14.24
2023-04-04T14:41:06.542Z,14.25
2023-04-04T14:43:33.140Z,14.27
2023-04-04T14:45:59.733Z,14.27
2023-04-04T14:48:26.534Z,14.24
2023-04-04T14:50:53.191Z,14.15
2023-04-04T14:53:19.733Z,14.07
2023-04-04T14:55:46.472Z,14.01
2023-04-04T14:58:13.188Z,13.91
2023-04-04T15:00:39.807Z,13.87
2023-04-04T15:03:08.434Z,13.84
2023-04-04T15:05:35.101Z,13.88
2023-04-04T15:08:01.679Z,13.86
2023-04-04T15:10:28.238Z,13.75
2023-04-04T15:12:55.321Z,13.71
2023-04-04T15:15:23.749Z,13.60
2023-04-04T15:17:51.328Z,13.42
2023-04-04T15:20:18.311Z,13.39
2023-04-04T15:22:44.938Z,13.26
2023-04-04T15:25:11.598Z,13.14
2023-04-04T15:27:39.233Z,13.07
2023-04-04T15:30:06.163Z,13.06
2023-04-04T15:32:32.826Z,12.92
2023-04-04T15:34:59.432Z,12.83
2023-04-04T15:37:26.561Z,12.79
2023-04-04T15:39:54.240Z,12.76
2023-04-04T15:42:21.183Z,12.66
2023-04-04T15:44:47.764Z,12.60
2023-04-04T15:47:15.754Z,12.58
2023-04-04T15:49:42.304Z,12.59
2023-04-04T15:52:08.932Z,12.40
2023-04-04T15:54:35.616Z,12.36
2023-04-04T15:57:02.152Z,12.31
2023-04-04T15:59:31.819Z,12.30
2023-04-04T16:01:58.722Z,12.30
2023-04-04T16:04:25.547Z,12.28
2023-04-04T16:06:52.182Z,12.28
2023-04-04T16:09:18.700Z,12.27
2023-04-04T16:11:45.298Z,12.28
2023-04-04T16:14:12.813Z,12.25
2023-04-04T16:16:40.724Z,12.25
2023-04-04T16:19:07.287Z,12.19
2023-04-04T16:21:34.022Z,12.16
2023-04-04T16:24:00.646Z,12.17
2023-04-04T16:26:27.191Z,12.13
2023-04-04T16:28:53.759Z,12.11
2023-04-04T16:31:20.378Z,12.06
2023-04-04T16:33:47.718Z,11.99
2023-04-04T16:36:14.319Z,11.96
2023-04-04T16:38:41.140Z,11.94
2023-04-04T16:41:07.726Z,11.93
2023-04-04T16:43:34.328Z,11.92
2023-04-04T16:46:00.910Z,11.93
2023-04-04T16:48:27.494Z,11.94
2023-04-04T16:50:54.816Z,11.95
2023-04-04T16:53:21.362Z,11.95
2023-04-04T16:55:47.998Z,11.93
2023-04-04T16:58:14.578Z,11.90
2023-04-04T17:00:41.963Z,11.88
2023-04-04T17:03:08.688Z,11.87
2023-04-04T17:05:35.362Z,11.86
2023-04-04T17:08:02.043Z,11.85
2023-04-04T17:10:28.626Z,11.81
2023-04-04T17:12:55.243Z,11.81
2023-04-04T17:15:21.947Z,11.79
2023-04-04T17:17:48.597Z,11.78
2023-04-04T17:20:18.332Z,11.76
2023-04-04T17:22:45.491Z,11.75
2023-04-04T17:25:12.261Z,11.75
2023-04-04T17:27:39.662Z,11.70
2023-04-04T17:30:08.357Z,11.68
2023-04-04T17:32:34.994Z,11.64
2023-04-04T17:35:02.182Z,11.63
2023-04-04T17:37:31.002Z,11.70
2023-04-04T17:39:58.553Z,11.67
2023-04-04T17:42:25.124Z,11.64
2023-04-04T17:44:51.885Z,11.61
2023-04-04T17:47:18.484Z,11.57
2023-04-04T17:49:46.015Z,11.56
2023-04-04T17:52:18.823Z,11.55
2023-04-04T17:54:47.900Z,11.55
2023-04-04T17:57:15.053Z,11.54
2023-04-04T17:59:42.084Z,11.55
2023-04-04T18:02:08.644Z,11.55
2023-04-04T18:04:35.245Z,11.53
2023-04-04T18:07:02.002Z,11.52
2023-04-04T18:09:29.106Z,11.48
2023-04-04T18:11:55.822Z,11.44
2023-04-04T18:14:22.865Z,11.38
2023-04-04T18:16:49.735Z,11.34
2023-04-04T18:19:16.389Z,11.31
2023-04-04T18:21:43.308Z,11.27
2023-04-04T18:24:11.798Z,11.24
2023-04-04T18:26:38.850Z,11.19
2023-04-04T18:29:05.458Z,11.15
2023-04-04T18:31:32.213Z,11.08
2023-04-04T18:33:58.869Z,11.04
2023-04-04T18:36:26.611Z,10.99
2023-04-04T18:38:53.663Z,10.94
2023-04-04T18:41:20.440Z,10.87
2023-04-04T18:43:47.032Z,10.82
2023-04-04T18:46:13.802Z,10.79
2023-04-04T18:48:41.512Z,10.73
2023-04-04T18:51:08.545Z,10.67
2023-04-04T18:53:35.104Z,10.61
2023-04-04T18:56:01.707Z,10.58
2023-04-04T18:58:28.349Z,10.52
2023-04-04T19:00:56.036Z,10.50
2023-04-04T19:03:23.157Z,10.47
2023-04-04T19:05:50.028Z,10.42
2023-04-04T19:08:17.542Z,10.36
2023-04-04T19:10:45.171Z,10.34
2023-04-04T19:13:11.738Z,10.31
2023-04-04T19:15:38.542Z,10.27
2023-04-04T19:18:05.492Z,10.23
2023-04-04T19:20:32.296Z,10.18
2023-04-04T19:22:58.850Z,10.17
2023-04-04T19:25:25.705Z,10.13
2023-04-04T19:27:52.492Z,10.09
2023-04-04T19:30:39.416Z,10.06
2023-04-04T19:33:10.289Z,9.98
2023-04-04T19:35:55.665Z,9.98
2023-04-04T19:38:23.002Z,9.94
2023-04-04T19:40:50.879Z,9.91
2023-04-04T19:43:19.714Z,9.90
2023-04-04T19:45:50.449Z,9.86
2023-04-04T19:48:35.929Z,9.86
2023-04-04T19:51:05.947Z,9.82
2023-04-04T19:53:32.668Z,9.78
2023-04-04T19:55:59.440Z,9.79
2023-04-04T19:58:26.038Z,9.77
2023-04-04T20:00:52.568Z,9.77
2023-04-04T20:03:34.120Z,9.78
2023-04-04T20:06:09.805Z,9.78
2023-04-04T20:08:41.446Z,9.76
2023-04-04T20:11:08.088Z,9.72
2023-04-04T20:13:36.068Z,9.68
2023-04-04T20:16:04.020Z,9.72
2023-04-04T20:18:32.206Z,9.73
2023-04-04T20:21:09.052Z,9.70
2023-04-04T20:23:46.829Z,9.67
2023-04-04T20:26:33.336Z,9.67
2023-04-04T20:28:59.914Z,9.70
2023-04-04T20:31:26.625Z,9.65
2023-04-04T20:33:53.214Z,9.62
2023-04-04T20:36:20.298Z,9.58
2023-04-04T20:38:47.211Z,9.57
2023-04-04T20:41:17.137Z,9.54
2023-04-04T20:43:49.289Z,9.55
2023-04-04T20:46:16.090Z,9.47
2023-04-04T20:48:42.782Z,9.47
2023-04-04T20:51:23.864Z,9.42
2023-04-04T20:53:51.452Z,9.41
2023-04-04T20:56:36.661Z,9.34
2023-04-04T20:59:06.287Z,9.32
2023-04-04T21:01:33.256Z,9.31
2023-04-04T21:03:59.893Z,9.30
2023-04-04T21:06:28.725Z,9.29
2023-04-04T21:08:55.610Z,9.27
2023-04-04T21:11:24.307Z,9.25
2023-04-04T21:13:50.970Z,9.24
2023-04-04T21:16:19.156Z,9.22
2023-04-04T21:18:46.306Z,9.20
2023-04-04T21:21:16.815Z,9.17
2023-04-04T21:24:01.662Z,9.14
2023-04-04T21:26:38.325Z,9.08
2023-04-04T21:29:08.723Z,9.05
2023-04-04T21:31:36.907Z,9.01
2023-04-04T21:34:11.063Z,8.98
2023-04-04T21:36:37.761Z,8.94
2023-04-04T21:39:10.977Z,8.93
2023-04-04T21:41:37.596Z,8.91
2023-04-04T21:44:05.345Z,8.90
2023-04-04T21:46:33.357Z,8.89
2023-04-04T21:49:00.193Z,8.88
2023-04-04T21:51:27.162Z,8.87
2023-04-04T21:53:54.057Z,8.87
2023-04-04T21:56:21.361Z,8.86
2023-04-04T21:58:47.999Z,8.84
2023-04-04T22:01:14.587Z,8.85
2023-04-04T22:03:41.329Z,8.83
2023-04-04T22:06:07.995Z,8.83
2023-04-04T22:08:34.726Z,8.83
2023-04-04T22:11:03.176Z,8.77
2023-04-04T22:13:33.497Z,8.76
2023-04-04T22:16:01.180Z,8.74
2023-04-04T22:18:33.140Z,8.75
2023-04-04T22:21:03.642Z,8.74
2023-04-04T22:23:35.264Z,8.73
2023-04-04T22:26:03.120Z,8.73
2023-04-04T22:28:29.691Z,8.72
2023-04-04T22:30:56.232Z,8.67
2023-04-04T22:33:22.741Z,8.64
2023-04-04T22:35:49.313Z,8.62
2023-04-04T22:38:15.832Z,8.56
2023-04-04T22:40:42.769Z,8.53
2023-04-04T22:43:09.660Z,8.49
2023-04-04T22:45:36.522Z,8.44
2023-04-04T22:48:03.653Z,8.38
2023-04-04T22:50:30.282Z,8.35
2023-04-04T22:52:58.682Z,8.32
2023-04-04T22:55:26.244Z,8.31
2023-04-04T22:57:52.860Z,8.28
2023-04-04T23:00:20.178Z,8.27
2023-04-04T23:02:47.779Z,8.26
2023-04-04T23:05:16.189Z,8.23
2023-04-04T23:07:43.549Z,8.22
2023-04-04T23:10:11.600Z,8.19
2023-04-04T23:12:38.724Z,8.19
2023-04-04T23:15:06.199Z,8.17
2023-04-04T23:17:33.453Z,8.12
2023-04-04T23:20:00.584Z,8.10
2023-04-04T23:22:27.824Z,8.11
2023-04-04T23:24:54.419Z,8.07
2023-04-04T23:27:21.197Z,8.04
2023-04-04T23:29:50.639Z,7.99
2023-04-04T23:32:17.154Z,7.96
2023-04-04T23:34:43.763Z,7.92
2023-04-04T23:37:10.299Z,7.88
2023-04-04T23:39:36.844Z,7.86
2023-04-04T23:42:04.396Z,7.83
2023-04-04T23:44:31.060Z,7.86
2023-04-04T23:46:58.972Z,7.82
2023-04-04T23:49:25.602Z,7.83
2023-04-04T23:51:52.145Z,7.76
2023-04-04T23:54:18.996Z,7.75
2023-04-04T23:56:45.752Z,7.71
2023-04-04T23:59:12.339Z,7.69
